createdAt,value
2022-11-16T00:03:17.542Z,16.80
2022-11-16T00:08:21.244Z,16.10
2022-11-16T00:13:24.867Z,16.00
2022-11-16T00:18:30.866Z,15.70
2022-11-16T00:23:42.824Z,15.90
2022-11-16T00:28:52.829Z,16.10
2022-11-16T00:33:58.643Z,15.80
2022-11-16T00:39:08.462Z,15.80
2022-11-16T00:44:15.158Z,16.20
2022-11-16T00:49:23.697Z,15.90
2022-11-16T00:54:27.625Z,16.10
2022-11-16T00:59:32.783Z,15.60
2022-11-16T01:04:40.712Z,15.70
2022-11-16T01:09:46.064Z,15.30
2022-11-16T01:14:59.645Z,15.20
2022-11-16T01:20:12.143Z,16.00
2022-11-16T01:25:16.684Z,15.80
2022-11-16T01:30:24.199Z,15.60
2022-11-16T01:35:44.205Z,15.50
2022-11-16T01:40:49.562Z,15.90
2022-11-16T01:45:53.804Z,15.90
2022-11-16T01:51:02.366Z,14.40
2022-11-16T01:56:08.567Z,14.80
2022-11-16T02:01:32.563Z,15.00
2022-11-16T02:06:54.479Z,14.50
2022-11-16T02:12:07.724Z,14.60
2022-11-16T02:17:46.622Z,13.30
2022-11-16T02:23:12.847Z,15.70
2022-11-16T02:28:33.514Z,15.20
2022-11-16T02:33:41.127Z,13.70
2022-11-16T02:39:06.769Z,14.50
2022-11-16T02:44:24.950Z,14.60
2022-11-16T02:49:35.337Z,14.30
2022-11-16T02:54:39.263Z,13.80
2022-11-16T02:59:57.314Z,14.90
2022-11-16T03:05:09.941Z,14.00
2022-11-16T03:10:39.349Z,14.50
2022-11-16T03:15:44.508Z,14.00
2022-11-16T03:20:53.155Z,13.70
2022-11-16T03:25:58.433Z,13.10
2022-11-16T03:31:07.556Z,13.00
2022-11-16T03:36:33.954Z,13.70
2022-11-16T03:41:41.876Z,13.90
2022-11-16T03:46:47.853Z,12.70
2022-11-16T03:51:52.338Z,12.60
2022-11-16T03:56:56.396Z,13.00
2022-11-16T04:02:00.199Z,12.20
2022-11-16T04:07:22.492Z,12.20
2022-11-16T04:12:49.511Z,11.60
2022-11-16T04:18:11.854Z,12.50
2022-11-16T04:23:35.332Z,12.40
2022-11-16T04:28:40.548Z,11.70
2022-11-16T04:34:03.556Z,11.20
2022-11-16T04:39:07.592Z,11.60
2022-11-16T04:44:11.620Z,12.00
2022-11-16T04:49:15.551Z,11.70
2022-11-16T04:54:20.402Z,11.80
2022-11-16T04:59:24.332Z,11.20
2022-11-16T05:04:28.632Z,11.60
2022-11-16T05:09:32.295Z,11.70
2022-11-16T05:14:36.332Z,11.90
2022-11-16T05:19:58.984Z,12.30
2022-11-16T05:25:04.046Z,11.60
2022-11-16T05:30:09.303Z,11.50
2022-11-16T05:35:13.041Z,11.20
2022-11-16T05:40:17.060Z,10.70
2022-11-16T05:50:32.702Z,11.00
2022-11-16T05:55:41.032Z,11.10
2022-11-16T06:00:47.927Z,11.30
2022-11-16T06:05:55.821Z,10.80
2022-11-16T06:11:05.410Z,11.60
2022-11-16T06:16:09.544Z,11.00
2022-11-16T06:21:16.216Z,11.50
2022-11-16T06:26:19.857Z,11.90
2022-11-16T06:31:23.998Z,10.90
2022-11-16T06:36:27.822Z,10.90
2022-11-16T06:41:33.159Z,12.30
2022-11-16T06:46:37.624Z,10.80
2022-11-16T06:51:41.350Z,10.50
2022-11-16T06:56:45.897Z,10.70
2022-11-16T07:01:49.868Z,10.90
2022-11-16T07:06:54.981Z,11.50
2022-11-16T07:11:58.915Z,10.70
2022-11-16T07:17:09.475Z,9.40
2022-11-16T07:22:21.982Z,10.00
2022-11-16T07:27:29.429Z,10.60
2022-11-16T07:32:33.257Z,9.80
2022-11-16T07:37:36.983Z,9.60
2022-11-16T07:42:42.347Z,9.90
2022-11-16T07:47:57.907Z,9.30
2022-11-16T07:53:31.549Z,9.20
2022-11-16T07:58:37.195Z,10.50
2022-11-16T08:03:43.574Z,11.70
2022-11-16T08:08:47.434Z,10.70
2022-11-16T08:13:51.361Z,10.70
2022-11-16T08:18:55.708Z,11.50
